createdAt,value
2023-03-13T00:01:24.346Z,5.15
2023-03-13T00:03:55.644Z,5.70
2023-03-13T00:06:25.306Z,5.30
2023-03-13T00:08:55.421Z,5.90
2023-03-13T00:11:23.989Z,5.72
2023-03-13T00:13:56.081Z,6.00
2023-03-13T00:16:24.785Z,5.82
2023-03-13T00:18:57.004Z,5.60
2023-03-13T00:21:29.850Z,6.18
2023-03-13T00:24:00.649Z,7.43
2023-03-13T00:26:30.148Z,7.00
2023-03-13T00:28:59.329Z,6.72
2023-03-13T00:31:30.660Z,7.32
2023-03-13T00:34:03.130Z,7.07
2023-03-13T00:36:34.024Z,9.38
2023-03-13T00:39:03.214Z,8.27
2023-03-13T00:41:33.439Z,8.20
2023-03-13T00:44:02.095Z,9.15
2023-03-13T00:46:31.797Z,9.55
2023-03-13T00:49:01.536Z,9.95
2023-03-13T00:51:30.210Z,9.02
2023-03-13T00:54:01.074Z,9.77
2023-03-13T00:56:30.511Z,9.02
2023-03-13T00:59:00.893Z,9.65
2023-03-13T01:01:32.423Z,10.13
2023-03-13T01:04:05.969Z,10.70
2023-03-13T01:06:36.550Z,10.95
2023-03-13T01:09:07.763Z,10.65
2023-03-13T01:11:39.569Z,11.90
2023-03-13T01:14:11.398Z,9.85
2023-03-13T01:16:41.839Z,11.52
2023-03-13T01:19:13.955Z,9.73
2023-03-13T01:21:43.339Z,11.18
2023-03-13T01:24:11.891Z,10.18
2023-03-13T01:26:40.693Z,10.13
2023-03-13T01:29:09.173Z,11.18
2023-03-13T01:31:38.226Z,10.82
2023-03-13T01:34:07.875Z,10.43
2023-03-13T01:36:39.670Z,12.00
2023-03-13T01:39:08.485Z,9.95
2023-03-13T01:41:37.001Z,12.32
2023-03-13T01:44:05.746Z,11.85
2023-03-13T01:46:34.126Z,11.98
2023-03-13T01:49:07.439Z,12.82
2023-03-13T01:51:40.765Z,12.20
2023-03-13T01:54:14.758Z,12.00
2023-03-13T01:56:50.007Z,13.05
2023-03-13T01:59:25.793Z,12.13
2023-03-13T02:01:59.121Z,14.57
2023-03-13T02:04:32.070Z,13.73
2023-03-13T02:07:08.690Z,12.60
2023-03-13T02:09:38.491Z,12.20
2023-03-13T02:12:11.392Z,13.15
2023-03-13T02:14:43.679Z,11.85
2023-03-13T02:17:12.929Z,12.45
2023-03-13T02:19:45.963Z,12.50
2023-03-13T02:22:24.564Z,10.70
2023-03-13T02:25:00.167Z,11.18
2023-03-13T02:27:30.158Z,9.57
2023-03-13T02:30:00.422Z,12.50
2023-03-13T02:32:29.751Z,11.93
2023-03-13T02:35:03.021Z,11.07
2023-03-13T02:37:32.953Z,10.25
2023-03-13T02:40:09.543Z,10.80
2023-03-13T02:42:42.519Z,11.40
2023-03-13T02:45:16.974Z,11.45
2023-03-13T02:47:45.861Z,9.65
2023-03-13T02:50:16.464Z,11.10
2023-03-13T02:52:47.341Z,10.57
2023-03-13T02:55:18.942Z,11.05
2023-03-13T02:57:48.753Z,10.57
2023-03-13T03:00:19.975Z,9.30
2023-03-13T03:02:48.383Z,10.48
2023-03-13T03:05:16.919Z,10.80
2023-03-13T03:07:45.358Z,9.77
2023-03-13T03:10:13.919Z,9.27
2023-03-13T03:12:42.407Z,8.88
2023-03-13T03:15:13.662Z,8.73
2023-03-13T03:17:42.408Z,8.00
2023-03-13T03:20:12.752Z,8.80
2023-03-13T03:22:41.869Z,7.88
2023-03-13T03:25:11.064Z,8.27
2023-03-13T03:27:39.499Z,9.20
2023-03-13T03:30:12.121Z,8.93
2023-03-13T03:32:40.626Z,9.68
2023-03-13T03:35:09.675Z,10.38
2023-03-13T03:37:38.091Z,10.15
2023-03-13T03:40:16.147Z,9.75
2023-03-13T03:42:44.723Z,9.77
2023-03-13T03:45:17.741Z,8.73
2023-03-13T03:47:46.436Z,9.48
2023-03-13T03:50:14.782Z,8.60
2023-03-13T03:52:43.180Z,8.88
2023-03-13T03:55:12.028Z,9.90
2023-03-13T03:57:40.802Z,8.90
2023-03-13T04:00:16.002Z,8.60
2023-03-13T04:02:45.896Z,7.63
2023-03-13T04:05:14.578Z,8.43
2023-03-13T04:07:42.895Z,8.48
2023-03-13T04:10:12.982Z,8.35
2023-03-13T04:12:41.654Z,8.10
2023-03-13T04:15:25.128Z,8.25
2023-03-13T04:17:54.917Z,8.77
2023-03-13T04:20:23.239Z,8.98
2023-03-13T04:22:58.920Z,8.85
2023-03-13T04:25:27.545Z,8.23
2023-03-13T04:27:56.385Z,8.85
2023-03-13T04:30:24.899Z,8.07
2023-03-13T04:32:54.896Z,7.70
2023-03-13T04:35:23.345Z,7.78
2023-03-13T04:37:51.840Z,7.97
2023-03-13T04:40:21.311Z,7.07
2023-03-13T04:42:49.561Z,7.68
2023-03-13T04:45:21.059Z,6.68
2023-03-13T04:47:49.393Z,7.00
2023-03-13T04:50:19.734Z,6.55
2023-03-13T04:52:49.595Z,6.50
2023-03-13T04:55:20.284Z,6.47
2023-03-13T04:57:48.552Z,6.38
2023-03-13T05:00:20.871Z,6.07
2023-03-13T05:02:49.157Z,5.72
2023-03-13T05:05:19.296Z,5.35
2023-03-13T05:07:47.885Z,5.45
2023-03-13T05:10:18.605Z,4.90
2023-03-13T05:12:46.843Z,5.28
2023-03-13T05:15:18.129Z,5.97
2023-03-13T05:17:46.478Z,5.25
2023-03-13T05:20:17.108Z,4.80
2023-03-13T05:22:46.759Z,4.63
2023-03-13T05:25:17.848Z,5.10
2023-03-13T05:27:48.418Z,5.47
2023-03-13T05:30:17.094Z,4.95
2023-03-13T05:32:45.420Z,5.35
2023-03-13T05:35:13.672Z,4.85
2023-03-13T05:37:42.313Z,5.03
2023-03-13T05:40:14.004Z,4.63
2023-03-13T05:42:42.725Z,4.70
2023-03-13T05:45:12.985Z,5.10
2023-03-13T05:47:41.760Z,4.30
2023-03-13T05:50:11.555Z,5.25
2023-03-13T05:52:40.166Z,4.43
2023-03-13T05:55:09.565Z,4.90
2023-03-13T05:57:39.797Z,4.53
2023-03-13T06:00:10.538Z,4.65
2023-03-13T06:02:38.995Z,4.85
2023-03-13T06:05:09.608Z,5.40
2023-03-13T06:07:38.379Z,4.38
2023-03-13T06:10:08.167Z,4.65
2023-03-13T06:12:38.011Z,4.80
2023-03-13T06:15:12.125Z,4.88
2023-03-13T06:17:41.136Z,5.00
2023-03-13T06:20:11.766Z,4.82
2023-03-13T06:22:40.183Z,4.22
2023-03-13T06:25:10.021Z,4.47
2023-03-13T06:27:39.788Z,4.85
2023-03-13T06:30:10.431Z,4.57
2023-03-13T06:32:39.005Z,4.53
2023-03-13T06:35:08.421Z,4.70
2023-03-13T06:37:36.861Z,5.20
2023-03-13T06:40:08.625Z,4.50
2023-03-13T06:42:36.865Z,4.50
2023-03-13T06:45:08.454Z,5.10
2023-03-13T06:47:36.700Z,5.03
2023-03-13T06:50:05.637Z,4.50
2023-03-13T06:52:43.025Z,5.20
2023-03-13T06:55:13.600Z,5.75
2023-03-13T06:57:42.351Z,5.50
2023-03-13T07:00:14.667Z,5.32
2023-03-13T07:02:42.966Z,4.95
2023-03-13T07:05:11.826Z,5.55
2023-03-13T07:07:40.248Z,5.30
2023-03-13T07:10:10.703Z,5.85
2023-03-13T07:12:39.544Z,6.45
2023-03-13T07:15:14.348Z,5.82
2023-03-13T07:17:42.665Z,5.60
2023-03-13T07:20:13.492Z,5.47
2023-03-13T07:22:42.456Z,5.90
2023-03-13T07:25:11.660Z,5.43
2023-03-13T07:27:40.008Z,5.50
2023-03-13T07:30:09.615Z,5.57
2023-03-13T07:32:39.257Z,6.00
2023-03-13T07:35:08.595Z,6.22
2023-03-13T07:37:36.848Z,4.95
2023-03-13T07:40:06.161Z,5.35
2023-03-13T07:42:34.526Z,5.75
2023-03-13T07:45:03.949Z,5.80
2023-03-13T07:47:32.188Z,5.60
2023-03-13T07:50:02.304Z,5.32
2023-03-13T07:52:30.560Z,4.72
2023-03-13T07:54:58.937Z,5.60
2023-03-13T07:57:27.442Z,5.32
2023-03-13T07:59:56.011Z,5.30
2023-03-13T08:02:24.450Z,5.30
2023-03-13T08:04:54.028Z,5.35
2023-03-13T08:07:24.047Z,5.22
2023-03-13T08:09:52.303Z,5.07
2023-03-13T08:12:23.702Z,5.05
2023-03-13T08:14:51.941Z,5.20
2023-03-13T08:17:20.227Z,5.72
2023-03-13T08:19:48.813Z,5.70
2023-03-13T08:22:20.057Z,5.05
2023-03-13T08:24:49.779Z,5.60
2023-03-13T08:27:18.387Z,4.45
2023-03-13T08:29:46.819Z,5.50
2023-03-13T08:32:15.303Z,4.90
2023-03-13T08:34:43.885Z,4.75
2023-03-13T08:37:18.654Z,4.53
2023-03-13T08:39:48.581Z,4.40
2023-03-13T08:42:20.084Z,4.50
2023-03-13T08:44:48.606Z,4.50
2023-03-13T08:47:21.611Z,4.05
2023-03-13T08:49:50.114Z,3.90
2023-03-13T08:52:24.791Z,3.63
2023-03-13T08:54:53.011Z,3.85
2023-03-13T08:57:23.234Z,3.65
2023-03-13T08:59:51.827Z,3.67
2023-03-13T09:02:21.240Z,4.18
2023-03-13T09:04:49.996Z,3.17
2023-03-13T09:07:21.152Z,2.83
2023-03-13T09:09:49.577Z,2.63
2023-03-13T09:12:30.399Z,2.85
2023-03-13T09:15:01.183Z,2.58
2023-03-13T09:17:29.426Z,2.72
2023-03-13T09:20:00.821Z,3.05
2023-03-13T09:22:29.500Z,2.83
2023-03-13T09:24:57.874Z,2.42
2023-03-13T09:27:28.264Z,2.60
2023-03-13T09:29:56.880Z,2.78
2023-03-13T09:32:26.853Z,2.00
2023-03-13T09:34:55.780Z,2.40
2023-03-13T09:37:24.217Z,1.88
2023-03-13T09:39:52.882Z,2.00
2023-03-13T09:42:26.192Z,2.13
2023-03-13T09:44:59.793Z,1.98
2023-03-13T09:47:39.663Z,2.17
2023-03-13T09:50:16.028Z,2.00
2023-03-13T09:52:44.392Z,2.70
2023-03-13T09:55:21.550Z,2.15
2023-03-13T09:57:57.179Z,2.72
2023-03-13T10:00:31.809Z,2.05
2023-03-13T10:03:09.218Z,2.22
2023-03-13T10:05:39.525Z,2.13
2023-03-13T10:08:17.865Z,2.38
2023-03-13T10:10:51.393Z,2.38
2023-03-13T10:13:34.786Z,2.28
2023-03-13T10:16:09.760Z,2.35
2023-03-13T10:18:44.976Z,2.17
2023-03-13T10:21:19.810Z,2.42
2023-03-13T10:23:54.915Z,2.40
2023-03-13T10:26:28.076Z,2.63
2023-03-13T10:28:57.243Z,2.45
2023-03-13T10:31:32.578Z,2.90
2023-03-13T10:34:09.959Z,3.20
2023-03-13T10:36:44.014Z,2.67
2023-03-13T10:39:21.228Z,2.10
2023-03-13T10:41:51.273Z,2.25
2023-03-13T10:44:22.347Z,2.47
2023-03-13T10:46:53.136Z,1.67
2023-03-13T10:49:25.716Z,2.17
2023-03-13T10:52:01.440Z,2.00
2023-03-13T10:54:32.064Z,2.05
2023-03-13T10:57:30.858Z,2.20
2023-03-13T11:00:00.776Z,1.95
2023-03-13T11:02:35.578Z,1.95
2023-03-13T11:05:34.843Z,1.77
2023-03-13T11:08:21.555Z,1.83
2023-03-13T11:10:56.898Z,1.83
2023-03-13T11:13:38.153Z,1.98
2023-03-13T11:16:32.319Z,1.95
2023-03-13T11:19:31.319Z,1.80
2023-03-13T11:22:21.508Z,1.88
2023-03-13T11:24:59.581Z,1.63
2023-03-13T11:27:37.686Z,1.50
2023-03-13T11:30:26.361Z,1.88
2023-03-13T11:32:57.775Z,1.75
2023-03-13T11:35:41.874Z,1.75
2023-03-13T11:38:25.971Z,1.70
2023-03-13T11:41:09.283Z,2.00
2023-03-13T11:43:54.235Z,2.20
2023-03-13T11:46:49.359Z,1.77
2023-03-13T11:49:50.278Z,2.10
2023-03-13T11:52:37.123Z,2.10
2023-03-13T11:55:39.218Z,2.08
2023-03-13T11:58:40.121Z,2.50
2023-03-13T12:01:13.529Z,2.55
2023-03-13T12:03:56.400Z,2.10
2023-03-13T12:06:31.896Z,2.60
2023-03-13T12:09:08.583Z,2.45
2023-03-13T12:11:43.805Z,2.05
2023-03-13T12:14:17.800Z,2.47
2023-03-13T12:16:51.106Z,2.28
2023-03-13T12:19:27.510Z,2.75
2023-03-13T12:21:59.745Z,2.50
2023-03-13T12:24:37.790Z,2.38
2023-03-13T12:27:17.929Z,2.40
2023-03-13T12:29:54.979Z,2.75
2023-03-13T12:32:40.192Z,2.80
2023-03-13T12:35:25.383Z,3.10
2023-03-13T12:38:03.693Z,2.40
2023-03-13T12:40:39.694Z,3.15
2023-03-13T12:43:19.514Z,3.05
2023-03-13T12:46:14.680Z,2.55
2023-03-13T12:49:01.452Z,3.25
2023-03-13T12:51:45.382Z,2.88
2023-03-13T12:54:42.804Z,3.13
2023-03-13T12:57:40.709Z,3.00
2023-03-13T13:00:18.308Z,3.05
2023-03-13T13:02:47.161Z,3.33
2023-03-13T13:05:22.317Z,3.53
2023-03-13T13:07:56.918Z,4.00
2023-03-13T13:10:27.543Z,3.17
2023-03-13T13:13:31.125Z,3.65
2023-03-13T13:16:07.965Z,4.20
2023-03-13T13:18:37.073Z,4.55
2023-03-13T13:21:24.929Z,3.42
2023-03-13T13:23:54.305Z,3.97
2023-03-13T13:26:51.187Z,3.60
2023-03-13T13:29:59.940Z,3.80
2023-03-13T13:32:47.505Z,3.70
2023-03-13T13:35:34.411Z,5.07
2023-03-13T13:38:40.954Z,3.47
2023-03-13T13:41:39.522Z,3.92
2023-03-13T13:44:28.727Z,4.57
2023-03-13T13:47:01.935Z,3.63
2023-03-13T13:49:56.865Z,4.10
2023-03-13T13:52:37.681Z,3.70
2023-03-13T13:55:45.284Z,3.90
2023-03-13T13:58:19.887Z,4.75
2023-03-13T14:00:54.468Z,4.07
2023-03-13T14:03:25.576Z,4.00
2023-03-13T14:05:58.945Z,4.35
2023-03-13T14:08:31.778Z,3.95
2023-03-13T14:11:23.972Z,3.85
2023-03-13T14:14:13.008Z,4.45
2023-03-13T14:16:46.154Z,4.05
2023-03-13T14:19:27.897Z,3.65
2023-03-13T14:22:10.275Z,4.47
2023-03-13T14:24:39.609Z,4.90
2023-03-13T14:27:17.444Z,3.60
2023-03-13T14:30:04.001Z,4.53
2023-03-13T14:32:32.547Z,3.90
2023-03-13T14:35:01.137Z,4.82
2023-03-13T14:37:39.770Z,4.45
2023-03-13T14:40:10.720Z,4.22
2023-03-13T14:42:48.247Z,4.47
2023-03-13T14:45:23.303Z,3.97
2023-03-13T14:47:53.316Z,3.83
2023-03-13T14:50:25.161Z,4.78
2023-03-13T14:53:14.460Z,4.28
2023-03-13T14:55:42.757Z,4.38
2023-03-13T14:58:28.630Z,3.63
2023-03-13T15:00:58.909Z,4.50
2023-03-13T15:03:33.423Z,4.20
2023-03-13T15:06:17.790Z,5.20
2023-03-13T15:08:51.958Z,4.40
2023-03-13T15:11:29.016Z,4.30
2023-03-13T15:13:58.285Z,3.90
2023-03-13T15:16:28.730Z,4.60
2023-03-13T15:18:57.659Z,3.83
2023-03-13T15:21:35.039Z,3.97
2023-03-13T15:24:14.137Z,4.20
2023-03-13T15:26:42.648Z,4.10
2023-03-13T15:29:11.604Z,4.43
2023-03-13T15:31:40.883Z,3.97
2023-03-13T15:34:13.666Z,4.63
2023-03-13T15:36:42.588Z,4.93
2023-03-13T15:39:19.456Z,4.50
2023-03-13T15:41:47.764Z,4.75
2023-03-13T15:44:19.365Z,5.05
2023-03-13T15:46:48.171Z,4.28
2023-03-13T15:49:19.142Z,5.57
2023-03-13T15:51:47.421Z,4.50
2023-03-13T15:54:17.910Z,4.82
2023-03-13T15:56:47.909Z,5.43
2023-03-13T15:59:20.690Z,4.93
2023-03-13T16:01:49.918Z,4.00
2023-03-13T16:04:19.962Z,4.55
2023-03-13T16:06:48.373Z,4.03
2023-03-13T16:09:19.686Z,5.00
2023-03-13T16:11:47.894Z,4.95
2023-03-13T16:14:16.936Z,5.57
2023-03-13T16:16:45.316Z,4.82
2023-03-13T16:19:13.646Z,5.38
2023-03-13T16:21:45.271Z,4.97
2023-03-13T16:24:13.532Z,5.07
2023-03-13T16:26:43.399Z,5.10
2023-03-13T16:29:13.138Z,5.53
2023-03-13T16:31:41.628Z,5.95
2023-03-13T16:34:10.418Z,5.97
2023-03-13T16:36:39.068Z,5.03
2023-03-13T16:39:12.629Z,5.15
2023-03-13T16:41:42.543Z,5.95
2023-03-13T16:44:10.868Z,5.82
2023-03-13T16:46:46.031Z,5.55
2023-03-13T16:49:18.856Z,6.28
2023-03-13T16:51:47.417Z,5.75
2023-03-13T16:54:15.794Z,6.50
2023-03-13T16:56:45.987Z,5.68
2023-03-13T16:59:17.492Z,7.10
2023-03-13T17:01:46.970Z,6.13
2023-03-13T17:04:16.718Z,6.65
2023-03-13T17:06:46.110Z,6.05
2023-03-13T17:09:17.976Z,6.55
2023-03-13T17:11:48.158Z,6.05
2023-03-13T17:14:18.976Z,5.88
2023-03-13T17:16:48.413Z,6.65
2023-03-13T17:19:20.315Z,6.97
2023-03-13T17:21:49.273Z,6.75
2023-03-13T17:24:18.301Z,7.03
2023-03-13T17:26:48.168Z,5.97
2023-03-13T17:29:19.364Z,6.90
2023-03-13T17:31:47.774Z,7.10
2023-03-13T17:34:16.719Z,6.57
2023-03-13T17:36:45.894Z,7.47
2023-03-13T17:39:15.940Z,7.00
2023-03-13T17:41:44.235Z,6.60
2023-03-13T17:44:15.012Z,5.78
2023-03-13T17:46:46.315Z,7.25
2023-03-13T17:49:17.875Z,7.10
2023-03-13T17:51:50.203Z,7.05
2023-03-13T17:54:19.052Z,6.57
2023-03-13T17:56:48.440Z,6.38
2023-03-13T17:59:19.788Z,7.00
2023-03-13T18:01:48.126Z,6.88
2023-03-13T18:04:19.519Z,5.88
2023-03-13T18:06:50.181Z,5.82
2023-03-13T18:09:21.258Z,6.90
2023-03-13T18:11:51.196Z,6.30
2023-03-13T18:14:21.469Z,7.63
2023-03-13T18:16:51.097Z,7.25
2023-03-13T18:19:22.678Z,6.90
2023-03-13T18:21:54.342Z,6.00
2023-03-13T18:24:23.412Z,6.43
2023-03-13T18:26:52.185Z,6.80
2023-03-13T18:29:27.103Z,6.03
2023-03-13T18:31:56.313Z,6.82
2023-03-13T18:34:25.801Z,6.28
2023-03-13T18:36:54.953Z,5.90
2023-03-13T18:39:27.870Z,5.95
2023-03-13T18:41:56.805Z,6.00
2023-03-13T18:44:27.886Z,7.43
2023-03-13T18:46:57.660Z,6.35
2023-03-13T18:49:25.868Z,6.25
2023-03-13T18:51:55.007Z,5.82
2023-03-13T18:54:26.317Z,6.78
2023-03-13T18:56:54.668Z,6.50
2023-03-13T18:59:40.261Z,5.90
2023-03-13T19:02:10.340Z,6.05
2023-03-13T19:04:38.805Z,5.93
2023-03-13T19:07:14.953Z,6.35
2023-03-13T19:09:46.305Z,6.20
2023-03-13T19:12:24.809Z,5.72
2023-03-13T19:14:54.835Z,6.05
2023-03-13T19:17:29.429Z,5.25
2023-03-13T19:19:58.135Z,5.32
2023-03-13T19:22:27.164Z,4.90
2023-03-13T19:24:55.697Z,5.35
2023-03-13T19:27:24.058Z,5.72
2023-03-13T19:29:55.943Z,6.15
2023-03-13T19:32:24.218Z,5.95
2023-03-13T19:34:52.534Z,6.22
2023-03-13T19:37:21.319Z,5.78
2023-03-13T19:39:49.678Z,5.40
2023-03-13T19:42:18.175Z,5.30
2023-03-13T19:44:46.546Z,5.63
2023-03-13T19:47:16.841Z,6.68
2023-03-13T19:49:49.752Z,6.15
2023-03-13T19:52:19.038Z,5.47
2023-03-13T19:54:50.680Z,5.53
2023-03-13T19:57:19.030Z,5.53
2023-03-13T19:59:47.277Z,5.72
2023-03-13T20:02:17.098Z,5.07
2023-03-13T20:04:45.951Z,5.63
2023-03-13T20:07:14.281Z,5.40
2023-03-13T20:09:42.634Z,6.50
2023-03-13T20:12:10.860Z,5.53
2023-03-13T20:14:39.848Z,5.32
2023-03-13T20:17:08.093Z,5.90
2023-03-13T20:19:37.834Z,5.50
2023-03-13T20:22:09.628Z,5.60
2023-03-13T20:24:38.859Z,6.13
2023-03-13T20:27:07.432Z,5.70
2023-03-13T20:29:38.296Z,5.47
2023-03-13T20:32:07.209Z,5.53
2023-03-13T20:34:37.109Z,5.82
2023-03-13T20:37:06.146Z,5.80
2023-03-13T20:39:37.883Z,5.40
2023-03-13T20:42:09.112Z,5.03
2023-03-13T20:44:37.718Z,6.00
2023-03-13T20:47:06.438Z,6.50
2023-03-13T20:49:35.593Z,5.32
2023-03-13T20:52:05.603Z,5.60
2023-03-13T20:54:33.949Z,5.75
2023-03-13T20:57:02.442Z,6.63
2023-03-13T20:59:30.702Z,6.15
2023-03-13T21:01:59.002Z,5.53
2023-03-13T21:04:27.506Z,5.88
2023-03-13T21:06:57.788Z,5.85
2023-03-13T21:09:32.700Z,5.82
2023-03-13T21:12:01.103Z,5.90
2023-03-13T21:14:29.602Z,6.40
2023-03-13T21:16:57.892Z,5.35
2023-03-13T21:19:26.288Z,5.75
2023-03-13T21:21:54.656Z,5.88
2023-03-13T21:24:22.950Z,6.07
2023-03-13T21:26:52.589Z,5.63
2023-03-13T21:29:20.940Z,5.78
2023-03-13T21:31:49.330Z,5.88
2023-03-13T21:34:17.930Z,5.95
2023-03-13T21:36:46.128Z,5.35
2023-03-13T21:39:14.391Z,6.25
2023-03-13T21:41:42.695Z,6.57
2023-03-13T21:44:12.770Z,6.68
2023-03-13T21:46:41.201Z,5.03
2023-03-13T21:49:09.493Z,5.35
2023-03-13T21:51:37.798Z,6.45
2023-03-13T21:54:06.333Z,5.60
2023-03-13T21:56:37.302Z,6.15
2023-03-13T21:59:05.921Z,5.60
2023-03-13T22:01:35.706Z,6.47
2023-03-13T22:04:03.929Z,5.82
2023-03-13T22:06:32.232Z,5.65
2023-03-13T22:09:00.468Z,5.43
2023-03-13T22:11:29.730Z,6.78
2023-03-13T22:13:58.035Z,5.95
2023-03-13T22:16:26.465Z,5.43
2023-03-13T22:18:56.754Z,5.68
2023-03-13T22:21:25.112Z,4.95
2023-03-13T22:23:53.393Z,6.00
2023-03-13T22:26:21.716Z,5.95
2023-03-13T22:28:49.953Z,6.45
2023-03-13T22:31:21.059Z,6.72
2023-03-13T22:33:49.306Z,6.75
2023-03-13T22:36:19.145Z,7.15
2023-03-13T22:38:48.314Z,6.22
2023-03-13T22:41:18.809Z,6.40
2023-03-13T22:43:47.116Z,6.13
2023-03-13T22:46:15.756Z,6.03
2023-03-13T22:48:48.968Z,5.88
2023-03-13T22:51:18.855Z,5.80
2023-03-13T22:53:47.087Z,5.78
2023-03-13T22:56:15.743Z,6.15
2023-03-13T22:58:44.094Z,6.22
2023-03-13T23:01:15.620Z,5.43
2023-03-13T23:03:44.470Z,6.00
2023-03-13T23:06:22.858Z,6.55
2023-03-13T23:08:51.481Z,6.78
2023-03-13T23:11:22.974Z,6.47
2023-03-13T23:13:51.227Z,6.75
2023-03-13T23:16:19.468Z,5.90
2023-03-13T23:18:47.989Z,6.53
2023-03-13T23:21:20.265Z,6.03
2023-03-13T23:23:50.504Z,6.10
2023-03-13T23:26:18.916Z,5.95
2023-03-13T23:28:47.235Z,4.97
2023-03-13T23:31:17.937Z,5.53
2023-03-13T23:33:47.766Z,5.88
2023-03-13T23:36:19.354Z,5.15
2023-03-13T23:38:54.203Z,4.78
2023-03-13T23:41:22.853Z,5.10
2023-03-13T23:43:51.264Z,4.90
2023-03-13T23:46:21.681Z,3.90
2023-03-13T23:48:53.237Z,4.25
2023-03-13T23:51:21.501Z,3.47
2023-03-13T23:53:51.601Z,3.05
2023-03-13T23:56:19.949Z,2.95
2023-03-13T23:58:48.238Z,2.95
